createdAt,value
2018-09-01T00:00:19.544Z,4.62
2018-09-01T00:04:23.022Z,4.28
2018-09-01T00:08:26.599Z,4.37
2018-09-01T00:12:30.064Z,4.72
2018-09-01T00:16:33.646Z,4.20
2018-09-01T00:20:37.548Z,4.95
2018-09-01T00:24:41.006Z,4.30
2018-09-01T00:28:44.804Z,4.33
2018-09-01T00:32:48.278Z,4.50
2018-09-01T00:36:51.770Z,5.12
2018-09-01T00:40:55.445Z,5.00
2018-09-01T00:44:58.922Z,4.60
2018-09-01T00:49:02.442Z,4.37
2018-09-01T00:53:06.181Z,4.65
2018-09-01T00:57:09.736Z,4.58
2018-09-01T01:01:13.231Z,5.12
2018-09-01T01:05:16.751Z,5.20
2018-09-01T01:09:20.257Z,5.08
2018-09-01T01:13:23.751Z,5.53
2018-09-01T01:17:27.245Z,5.58
2018-09-01T01:21:30.713Z,5.72
2018-09-01T01:25:34.193Z,5.87
2018-09-01T01:29:37.654Z,5.20
2018-09-01T01:33:41.117Z,5.87
2018-09-01T01:37:44.625Z,5.20
2018-09-01T01:41:48.232Z,5.97
2018-09-01T01:45:51.735Z,6.40
2018-09-01T01:49:55.189Z,5.47
2018-09-01T01:53:58.711Z,6.27
2018-09-01T01:58:02.411Z,6.27
2018-09-01T02:02:06.044Z,6.00
2018-09-01T02:06:09.651Z,5.97
2018-09-01T02:10:13.471Z,6.07
2018-09-01T02:14:16.947Z,6.70
2018-09-01T02:18:20.431Z,6.40
2018-09-01T02:22:23.918Z,5.80
2018-09-01T02:26:27.439Z,6.00
2018-09-01T02:30:30.902Z,5.77
2018-09-01T02:34:34.412Z,5.90
2018-09-01T02:38:37.908Z,5.63
2018-09-01T02:42:41.404Z,5.93
2018-09-01T02:46:44.915Z,5.50
2018-09-01T02:50:48.370Z,5.93
2018-09-01T02:54:51.883Z,5.70
2018-09-01T02:58:55.390Z,5.73
2018-09-01T03:02:58.872Z,6.33
2018-09-01T03:07:02.486Z,6.27
2018-09-01T03:11:06.094Z,5.87
2018-09-01T03:15:09.612Z,5.87
2018-09-01T03:19:13.090Z,6.40
2018-09-01T03:23:16.598Z,6.20
2018-09-01T03:27:20.072Z,6.80
2018-09-01T03:31:23.538Z,6.60
2018-09-01T03:35:28.287Z,7.27
2018-09-01T03:39:31.793Z,7.27
2018-09-01T03:43:35.334Z,8.47
2018-09-01T03:47:38.845Z,7.10
2018-09-01T03:51:42.322Z,7.87
2018-09-01T03:55:45.851Z,6.97
2018-09-01T03:59:49.334Z,7.40
2018-09-01T04:03:52.837Z,7.27
2018-09-01T04:07:56.335Z,6.90
2018-09-01T04:11:59.830Z,7.43
2018-09-01T04:16:03.380Z,7.20
2018-09-01T04:20:06.861Z,7.80
2018-09-01T04:24:10.325Z,7.47
2018-09-01T04:28:13.798Z,7.07
2018-09-01T04:32:17.289Z,7.90
2018-09-01T04:36:20.779Z,6.90
2018-09-01T04:40:24.245Z,6.77
2018-09-01T04:44:27.864Z,6.07
2018-09-01T04:48:31.333Z,6.23
2018-09-01T04:52:35.327Z,5.97
2018-09-01T04:56:38.788Z,6.17
2018-09-01T05:00:42.281Z,5.33
2018-09-01T05:04:45.778Z,5.67
2018-09-01T05:08:49.235Z,6.27
2018-09-01T05:12:52.712Z,7.00
2018-09-01T05:16:56.239Z,6.83
2018-09-01T05:20:59.786Z,6.30
2018-09-01T05:25:03.350Z,7.07
2018-09-01T05:29:06.983Z,6.00
2018-09-01T05:33:10.554Z,6.10
2018-09-01T05:37:14.300Z,6.07
2018-09-01T05:41:17.770Z,6.23
2018-09-01T05:45:21.274Z,6.57
2018-09-01T05:49:24.806Z,6.27
2018-09-01T05:53:28.244Z,6.53
2018-09-01T05:57:31.747Z,5.63
2018-09-01T06:01:35.259Z,5.63
2018-09-01T06:05:38.854Z,5.90
2018-09-01T06:09:42.409Z,5.80
2018-09-01T06:13:45.891Z,6.20
2018-09-01T06:17:49.438Z,5.47
2018-09-01T06:21:53.013Z,5.47
2018-09-01T06:25:56.593Z,5.20
2018-09-01T06:30:00.178Z,5.43
2018-09-01T06:34:03.750Z,5.23
2018-09-01T06:38:07.289Z,5.20
2018-09-01T06:42:10.785Z,4.80
2018-09-01T06:46:14.275Z,4.70
2018-09-01T06:50:17.725Z,4.23
2018-09-01T06:54:21.204Z,4.10
